GGD weather

Gregory Downs Airport
Queensland, Australia

Public forecast

Using degrees Celsius for public forecast. Weather courtesy of forecast.io.

Closest aviation weather report (METAR) to Gregory Downs Airport

Closest report is Normanton Airport, 119.0 nm (220.5 km) ENE. Retrieved 2019/10/18 02:00 UTC (53 minutes ago):

YNTN 180200Z AUTO 29005KT 220V340 9999 // NCD 37/16 Q1012

Closest aviation forecast (TAF) to Gregory Downs Airport

Closest forecast is Tennant Creek Airport, 292.8 nm (542.2 km) WSW. Retrieved 2019-10-18 02:03 UTC (50 minutes ago):

TAF TAF YTNK 180020Z 1802/1814 09014KT CAVOK